Kelsey, Texas
Current Conditions -  °F | °C
As of 2:15 PM on Wednesday 28 Jan 2015 (Local Time) from KJXI Reporting Station
Clear Clear  
Wind Chill: 77°   Ceiling: Unl
Heat Index: 78°   Visibility: 10mi
Dew Point: 45°   Wind: 14mph
Humidity: 32%   Direction: 170°S
Pressure: 30.07"   Gusts: 20mph
Location:  32.7353°N, 94.9492°W
Report Text: KJXI 282015Z AUTO 17012G17KT 10SM CLR 25/07 A3007 RMK AO2 T02490073
Loading
Personal Weather Stations






























Interactive Weather Map New forecast layout! Learn more

10-Day Weather Forecast

Advertisements
Track Severe Weather on mobile